createdAt,value
2022-11-19T00:01:28.024Z,100891.31
2022-11-19T00:03:56.020Z,100907.44
2022-11-19T00:06:26.440Z,100902.09
2022-11-19T00:08:55.170Z,100909.13
2022-11-19T00:11:39.512Z,100901.31
2022-11-19T00:14:07.920Z,100917.00
2022-11-19T00:16:35.693Z,100918.91
2022-11-19T00:19:03.241Z,100921.47
2022-11-19T00:21:30.690Z,100922.44
2022-11-19T00:23:58.722Z,100921.13
2022-11-19T00:26:26.260Z,100916.16
2022-11-19T00:28:53.929Z,100921.13
2022-11-19T00:31:21.663Z,100920.16
2022-11-19T00:33:50.683Z,100918.28
2022-11-19T00:36:18.767Z,100923.38
2022-11-19T00:38:46.276Z,100914.81
2022-11-19T00:41:13.791Z,100931.88
2022-11-19T00:43:50.633Z,100927.50
2022-11-19T00:46:25.941Z,100930.03
2022-11-19T00:48:56.132Z,100937.69
2022-11-19T00:51:25.309Z,100936.97
2022-11-19T00:53:52.980Z,100939.09
2022-11-19T00:56:23.136Z,100938.13
2022-11-19T00:58:51.576Z,100934.66
2022-11-19T01:01:21.362Z,100941.44
2022-11-19T01:03:48.930Z,100949.34
2022-11-19T01:06:19.541Z,100945.59
2022-11-19T01:08:48.393Z,100955.22
2022-11-19T01:11:20.319Z,100952.84
2022-11-19T01:13:48.391Z,100960.28
2022-11-19T01:16:18.872Z,100963.91
2022-11-19T01:18:48.316Z,100960.88
2022-11-19T01:21:16.814Z,100958.31
2022-11-19T01:23:45.296Z,100966.16
2022-11-19T01:26:13.619Z,100962.00
2022-11-19T01:28:41.718Z,100967.16
2022-11-19T01:31:16.756Z,100971.50
2022-11-19T01:33:44.385Z,100977.38
2022-11-19T01:36:15.313Z,100970.78
2022-11-19T01:38:43.160Z,100981.69
2022-11-19T01:41:11.346Z,100982.56
2022-11-19T01:43:59.074Z,100977.44
2022-11-19T01:46:30.119Z,100982.22
2022-11-19T01:49:15.340Z,100985.50
2022-11-19T01:51:46.958Z,100981.06
2022-11-19T01:54:25.537Z,100987.03
2022-11-19T01:56:56.922Z,100993.16
2022-11-19T01:59:26.346Z,100987.03
2022-11-19T02:01:54.075Z,100982.13
2022-11-19T02:04:22.461Z,100981.81
2022-11-19T02:06:50.128Z,100986.13
2022-11-19T02:09:18.082Z,100993.16
2022-11-19T02:11:58.037Z,101003.44
2022-11-19T02:15:03.116Z,101018.47
2022-11-19T02:18:01.540Z,101016.91
2022-11-19T02:20:58.696Z,101020.47
2022-11-19T02:23:45.954Z,101018.88
2022-11-19T02:26:22.757Z,101020.44
2022-11-19T02:29:21.579Z,101013.31
2022-11-19T02:32:07.616Z,100988.25
2022-11-19T02:34:42.692Z,101012.22
2022-11-19T02:37:16.352Z,101019.72
2022-11-19T02:40:06.767Z,101017.25
2022-11-19T02:42:43.502Z,101003.47
2022-11-19T02:45:20.640Z,101020.13
2022-11-19T02:47:53.615Z,101026.16
2022-11-19T02:50:29.128Z,101019.09
2022-11-19T02:52:57.501Z,101010.31
2022-11-19T02:55:25.352Z,101011.75
2022-11-19T02:58:01.932Z,101022.09
2022-11-19T03:00:49.337Z,101025.13
2022-11-19T03:03:38.676Z,101025.00
2022-11-19T03:06:34.549Z,101028.78
2022-11-19T03:09:02.803Z,101024.59
2022-11-19T03:11:32.790Z,101027.69
2022-11-19T03:14:39.795Z,101028.31
2022-11-19T03:17:27.958Z,101026.69
2022-11-19T03:20:04.120Z,101031.19
2022-11-19T03:22:39.372Z,101036.84
2022-11-19T03:25:13.313Z,101040.03
2022-11-19T03:27:51.253Z,101031.59
2022-11-19T03:30:20.383Z,101029.00
2022-11-19T03:32:54.283Z,101022.63
2022-11-19T03:35:28.256Z,101034.63
2022-11-19T03:37:59.826Z,101033.06
2022-11-19T03:40:29.309Z,101032.22
2022-11-19T03:42:58.969Z,101041.50
2022-11-19T03:45:30.712Z,101048.94
2022-11-19T03:48:00.976Z,101041.91
2022-11-19T03:50:59.309Z,101055.09
2022-11-19T03:53:27.322Z,101060.78
2022-11-19T03:56:02.759Z,101053.16
2022-11-19T03:58:35.012Z,101063.56
2022-11-19T04:01:02.487Z,101075.31
2022-11-19T04:03:29.984Z,101076.34
2022-11-19T04:05:57.475Z,101068.59
2022-11-19T04:08:25.004Z,101072.00
2022-11-19T04:10:52.519Z,101080.91
2022-11-19T04:13:20.036Z,101077.69
2022-11-19T04:15:47.452Z,101085.44
2022-11-19T04:18:15.077Z,101077.31
2022-11-19T04:20:44.845Z,101100.34
2022-11-19T04:23:12.479Z,101101.31
2022-11-19T04:25:41.311Z,101106.94
2022-11-19T04:28:08.856Z,101096.06
2022-11-19T04:30:36.433Z,101107.69
2022-11-19T04:33:03.865Z,101114.38
2022-11-19T04:35:31.340Z,101115.59
2022-11-19T04:37:58.892Z,101116.56
2022-11-19T04:40:26.419Z,101118.31
2022-11-19T04:42:53.916Z,101116.69
2022-11-19T04:45:21.422Z,101122.66
2022-11-19T04:47:48.881Z,101120.63
2022-11-19T04:50:16.502Z,101120.44
2022-11-19T04:52:44.046Z,101119.28
2022-11-19T04:55:11.836Z,101126.78
2022-11-19T04:57:39.338Z,101130.56
2022-11-19T05:00:08.234Z,101129.97
2022-11-19T05:02:35.766Z,101130.84
2022-11-19T05:05:03.373Z,101132.03
2022-11-19T05:07:31.009Z,101133.47
2022-11-19T05:09:58.617Z,101136.91
2022-11-19T05:12:26.146Z,101141.09
2022-11-19T05:14:53.635Z,101149.84
2022-11-19T05:17:21.224Z,101137.84
2022-11-19T05:19:48.703Z,101141.56
2022-11-19T05:22:16.150Z,101142.94
2022-11-19T05:24:43.608Z,101146.72
2022-11-19T05:27:11.080Z,101156.28
2022-11-19T05:29:38.600Z,101155.53
2022-11-19T05:32:06.140Z,101148.03
2022-11-19T05:34:33.625Z,101156.47
2022-11-19T05:37:01.176Z,101156.78
2022-11-19T05:39:29.036Z,101158.13
2022-11-19T05:41:56.728Z,101155.69
2022-11-19T05:44:24.335Z,101161.50
2022-11-19T05:46:51.851Z,101161.38
2022-11-19T05:49:19.588Z,101165.69
2022-11-19T05:51:47.663Z,101161.50
2022-11-19T05:54:15.508Z,101170.34
2022-11-19T05:56:43.011Z,101168.81
2022-11-19T05:59:10.467Z,101166.63
2022-11-19T06:01:38.038Z,101183.63
2022-11-19T06:04:05.680Z,101178.38
2022-11-19T06:06:33.207Z,101180.91
2022-11-19T06:09:00.670Z,101187.38
2022-11-19T06:11:44.931Z,101193.06
2022-11-19T06:14:12.451Z,101193.22
2022-11-19T06:16:39.947Z,101205.66
2022-11-19T06:19:07.689Z,101198.47
2022-11-19T06:21:35.385Z,101198.06
2022-11-19T06:24:02.875Z,101199.91
2022-11-19T06:26:30.770Z,101197.63
2022-11-19T06:28:58.320Z,101201.78
2022-11-19T06:31:25.890Z,101204.78
2022-11-19T06:33:54.119Z,101204.56
2022-11-19T06:36:25.178Z,101203.03
2022-11-19T06:38:54.903Z,101212.47
2022-11-19T06:41:22.373Z,101218.94
2022-11-19T06:43:49.867Z,101224.09
2022-11-19T06:46:17.690Z,101216.19
2022-11-19T06:48:45.237Z,101215.03
2022-11-19T06:51:12.910Z,101223.19
2022-11-19T06:53:40.613Z,101228.53
2022-11-19T06:56:09.204Z,101232.44
2022-11-19T06:58:36.955Z,101214.31
2022-11-19T07:01:04.783Z,101232.94
2022-11-19T07:03:32.303Z,101237.78
2022-11-19T07:06:04.620Z,101244.53
2022-11-19T07:08:35.622Z,101249.25
2022-11-19T07:11:24.343Z,101250.63
2022-11-19T07:13:59.015Z,101248.13
2022-11-19T07:16:32.431Z,101251.28
2022-11-19T07:19:02.086Z,101260.03
2022-11-19T07:21:30.699Z,101263.47
2022-11-19T07:23:59.096Z,101273.63
2022-11-19T07:26:27.257Z,101280.78
2022-11-19T07:28:55.217Z,101274.47
2022-11-19T07:31:24.555Z,101270.31
2022-11-19T07:33:52.066Z,101269.22
2022-11-19T07:36:19.845Z,101269.38
2022-11-19T07:38:47.412Z,101272.00
2022-11-19T07:41:32.661Z,101278.38
2022-11-19T07:44:00.108Z,101280.34
2022-11-19T07:46:27.623Z,101283.22
2022-11-19T07:48:56.698Z,101295.47
2022-11-19T07:51:25.320Z,101288.25
2022-11-19T07:53:53.564Z,101289.16
2022-11-19T07:56:21.471Z,101293.06
2022-11-19T07:58:49.064Z,101298.88
2022-11-19T08:01:20.250Z,101302.72
2022-11-19T08:03:54.888Z,101302.63
2022-11-19T08:06:26.260Z,101299.69
2022-11-19T08:08:55.818Z,101315.44
2022-11-19T08:11:24.393Z,101322.88
2022-11-19T08:13:52.493Z,101322.06
2022-11-19T08:16:34.698Z,101315.22
2022-11-19T08:19:08.197Z,101313.84
2022-11-19T08:21:35.790Z,101322.72
2022-11-19T08:24:03.972Z,101323.13
2022-11-19T08:26:31.565Z,101328.78
2022-11-19T08:28:59.139Z,101327.69
2022-11-19T08:31:26.689Z,101328.88
2022-11-19T08:33:54.315Z,101335.59
2022-11-19T08:36:21.784Z,101338.47
2022-11-19T08:38:49.292Z,101342.63
2022-11-19T08:41:34.345Z,101344.38
2022-11-19T08:46:30.171Z,101339.88
2022-11-19T08:48:57.735Z,101356.69
2022-11-19T08:51:25.370Z,101352.66
2022-11-19T08:53:53.993Z,101346.47
2022-11-19T08:56:22.877Z,101362.25
2022-11-19T08:58:50.558Z,101356.28
2022-11-19T09:01:18.845Z,101361.81
2022-11-19T09:03:46.721Z,101355.66
2022-11-19T09:06:14.508Z,101349.22
2022-11-19T09:08:42.850Z,101356.41
2022-11-19T09:11:17.783Z,101365.03
2022-11-19T09:13:45.667Z,101362.53
2022-11-19T09:16:14.235Z,101367.19
2022-11-19T09:18:42.360Z,101367.94
2022-11-19T09:21:12.097Z,101366.53
2022-11-19T09:23:41.474Z,101385.03
2022-11-19T09:26:17.850Z,101376.72
2022-11-19T09:28:46.602Z,101386.34
2022-11-19T09:31:18.159Z,101392.66
2022-11-19T09:33:51.204Z,101392.19
2022-11-19T09:36:19.806Z,101402.22
2022-11-19T09:38:48.797Z,101401.84
2022-11-19T09:41:41.397Z,101404.19
2022-11-19T09:44:29.811Z,101415.13
2022-11-19T09:47:18.941Z,101364.31
2022-11-19T09:49:54.699Z,101410.16
2022-11-19T09:52:26.663Z,101407.41
2022-11-19T09:54:57.741Z,101408.69
2022-11-19T09:57:34.956Z,101412.03
2022-11-19T10:00:03.373Z,101420.50
2022-11-19T10:02:31.018Z,101402.56
2022-11-19T10:04:59.936Z,101401.00
2022-11-19T10:07:58.176Z,101398.56
2022-11-19T10:10:41.571Z,101403.16
2022-11-19T10:13:38.697Z,101408.34
2022-11-19T10:16:11.904Z,101390.50
2022-11-19T10:18:42.044Z,101393.84
2022-11-19T10:21:19.425Z,101407.28
2022-11-19T10:23:49.745Z,101413.72
2022-11-19T10:26:19.557Z,101407.34
2022-11-19T10:28:54.906Z,101421.72
2022-11-19T10:31:37.681Z,101411.78
2022-11-19T10:34:16.701Z,101398.47
2022-11-19T10:37:07.448Z,101409.31
2022-11-19T10:39:40.933Z,101399.09
2022-11-19T10:42:28.709Z,101402.84
2022-11-19T10:45:05.858Z,101397.59
2022-11-19T10:47:47.898Z,101390.81
2022-11-19T10:50:33.763Z,101392.53
2022-11-19T10:53:08.464Z,101393.88
2022-11-19T10:55:42.027Z,101389.72
2022-11-19T10:58:19.134Z,101396.56
2022-11-19T11:00:48.186Z,101391.03
2022-11-19T11:03:22.023Z,101379.34
2022-11-19T11:06:06.468Z,101386.34
2022-11-19T11:08:34.904Z,101381.69
2022-11-19T11:11:02.635Z,101386.13
2022-11-19T11:13:59.145Z,101379.78
2022-11-19T11:16:48.822Z,101374.66
2022-11-19T11:19:23.144Z,101377.53
2022-11-19T11:21:55.765Z,101376.69
2022-11-19T11:24:31.320Z,101380.16
2022-11-19T11:27:33.960Z,101365.59
2022-11-19T11:30:07.986Z,101352.25
2022-11-19T11:32:35.616Z,101356.06
2022-11-19T11:35:08.250Z,101356.41
2022-11-19T11:37:37.696Z,101355.28
2022-11-19T11:40:05.681Z,101355.31
2022-11-19T11:42:33.225Z,101349.50
2022-11-19T11:45:02.201Z,101359.91
2022-11-19T11:47:33.127Z,101353.13
2022-11-19T11:50:16.907Z,101358.00
2022-11-19T11:52:55.648Z,101346.16
2022-11-19T11:55:26.344Z,101356.91
2022-11-19T11:57:56.502Z,101354.69
2022-11-19T12:00:30.072Z,101357.56
2022-11-19T12:03:03.595Z,101363.50
2022-11-19T12:05:54.399Z,101374.13
2022-11-19T12:08:49.364Z,101363.72
2022-11-19T12:11:52.627Z,101361.44
2022-11-19T12:14:28.447Z,101359.44
2022-11-19T12:17:17.997Z,101362.81
2022-11-19T12:19:56.495Z,101365.00
2022-11-19T12:22:36.430Z,101357.78
2022-11-19T12:25:10.112Z,101359.81
2022-11-19T12:28:02.558Z,101363.50
2022-11-19T12:31:04.033Z,101358.25
2022-11-19T12:33:53.160Z,101364.31
2022-11-19T12:36:29.723Z,101369.09
2022-11-19T12:39:39.247Z,101359.47
2022-11-19T12:42:23.898Z,101362.31
2022-11-19T12:45:03.542Z,101353.72
2022-11-19T12:48:08.966Z,101361.63
2022-11-19T12:50:55.299Z,101355.94
2022-11-19T12:53:43.789Z,101356.22
2022-11-19T12:56:29.577Z,101351.59
2022-11-19T12:59:03.917Z,101358.13
2022-11-19T13:01:37.179Z,101357.44
2022-11-19T13:04:22.499Z,101357.69
2022-11-19T13:07:04.717Z,101354.88
2022-11-19T13:09:38.323Z,101359.19
2022-11-19T13:12:09.386Z,101362.56
2022-11-19T13:14:42.296Z,101368.66
2022-11-19T13:17:24.048Z,101354.63
2022-11-19T13:19:57.174Z,101368.03
2022-11-19T13:22:28.988Z,101358.13
2022-11-19T13:25:05.329Z,101361.88
2022-11-19T13:27:33.513Z,101359.34
2022-11-19T13:30:08.113Z,101364.38
2022-11-19T13:33:00.649Z,101357.03
2022-11-19T13:35:35.282Z,101350.16
2022-11-19T13:38:15.562Z,101353.22
2022-11-19T13:40:48.280Z,101350.81
2022-11-19T13:43:37.338Z,101341.22
2022-11-19T13:46:17.327Z,101344.28
2022-11-19T13:49:08.611Z,101343.47
2022-11-19T13:51:43.640Z,101350.63
2022-11-19T13:54:28.448Z,101349.44
2022-11-19T13:56:59.490Z,101347.41
2022-11-19T13:59:38.650Z,101349.09
2022-11-19T14:02:12.087Z,101353.88
2022-11-19T14:04:48.622Z,101344.97
2022-11-19T14:07:44.643Z,101354.44
2022-11-19T14:10:34.040Z,101344.44
2022-11-19T14:13:39.564Z,101342.88
2022-11-19T14:16:42.175Z,101343.56
2022-11-19T14:19:33.035Z,101335.63
2022-11-19T14:22:19.454Z,101350.94
2022-11-19T14:25:04.164Z,101352.47
2022-11-19T14:27:33.849Z,101352.59
2022-11-19T14:30:16.771Z,101325.28
2022-11-19T14:32:47.706Z,101357.28
2022-11-19T14:35:30.949Z,101357.22
2022-11-19T14:38:13.014Z,101359.03
2022-11-19T14:40:43.949Z,101357.19
2022-11-19T14:43:35.037Z,101325.88
2022-11-19T14:46:02.822Z,101357.28
2022-11-19T14:48:32.568Z,101357.06
2022-11-19T14:51:06.108Z,101353.66
2022-11-19T14:53:34.360Z,101363.59
2022-11-19T14:56:09.635Z,101360.16
2022-11-19T14:58:37.349Z,101363.28
2022-11-19T15:01:11.172Z,101358.91
2022-11-19T15:03:38.958Z,101367.19
2022-11-19T15:06:08.672Z,101367.81
2022-11-19T15:08:57.428Z,101346.84
2022-11-19T15:11:24.873Z,101365.13
2022-11-19T15:14:34.339Z,101375.16
2022-11-19T15:17:08.444Z,101366.53
2022-11-19T15:20:13.587Z,101360.38
2022-11-19T15:22:46.815Z,101365.25
2022-11-19T15:25:26.626Z,101369.25
2022-11-19T15:28:07.913Z,101365.88
2022-11-19T15:30:59.277Z,101374.91
2022-11-19T15:33:52.486Z,101376.41
2022-11-19T15:36:33.816Z,101382.78
2022-11-19T15:39:14.276Z,101374.19
2022-11-19T15:42:00.206Z,101384.16
2022-11-19T15:44:51.264Z,101392.56
2022-11-19T15:47:25.290Z,101395.81
2022-11-19T15:49:54.344Z,101394.69
2022-11-19T15:52:30.730Z,101402.16
2022-11-19T15:55:22.524Z,101402.91
2022-11-19T15:57:54.980Z,101398.41
2022-11-19T16:00:24.316Z,101394.78
2022-11-19T16:02:53.670Z,101405.72
2022-11-19T16:05:30.587Z,101404.63
2022-11-19T16:07:59.864Z,101397.09
2022-11-19T16:10:31.528Z,101412.44
2022-11-19T16:13:19.429Z,101410.56
2022-11-19T16:16:13.096Z,101413.72
2022-11-19T16:18:48.124Z,101416.97
2022-11-19T16:21:21.161Z,101415.91
2022-11-19T16:24:06.315Z,101420.81
2022-11-19T16:26:38.593Z,101423.34
2022-11-19T16:29:06.446Z,101431.72
2022-11-19T16:31:34.372Z,101426.47
2022-11-19T16:34:01.871Z,101417.56
2022-11-19T16:36:32.088Z,101424.28
2022-11-19T16:38:59.949Z,101440.25
2022-11-19T16:41:45.423Z,101436.69
2022-11-19T16:44:21.100Z,101428.72
2022-11-19T16:46:49.248Z,101417.31
2022-11-19T16:49:49.369Z,101422.28
2022-11-19T16:52:35.163Z,101429.75
2022-11-19T16:55:05.021Z,101426.97
2022-11-19T16:57:33.566Z,101437.94
2022-11-19T17:00:06.185Z,101442.91
2022-11-19T17:02:40.647Z,101441.91
2022-11-19T17:05:16.741Z,101439.28
2022-11-19T17:07:48.604Z,101441.75
2022-11-19T17:10:26.157Z,101440.72
2022-11-19T17:12:56.887Z,101445.53
2022-11-19T17:15:42.835Z,101435.16
2022-11-19T17:18:13.366Z,101423.91
2022-11-19T17:20:40.866Z,101431.50
2022-11-19T17:23:34.058Z,101433.75
2022-11-19T17:26:07.692Z,101435.88
2022-11-19T17:28:41.034Z,101442.88
2022-11-19T17:31:21.038Z,101439.25
2022-11-19T17:33:52.018Z,101443.38
2022-11-19T17:36:20.085Z,101440.53
2022-11-19T17:38:47.612Z,101433.66
2022-11-19T17:41:38.176Z,101437.91
2022-11-19T17:44:27.333Z,101447.91
2022-11-19T17:46:54.848Z,101447.59
2022-11-19T17:49:22.488Z,101446.31
2022-11-19T17:51:50.760Z,101458.78
2022-11-19T17:54:18.568Z,101459.44
2022-11-19T17:56:46.237Z,101454.16
2022-11-19T17:59:13.770Z,101453.91
2022-11-19T18:01:41.477Z,101452.09
2022-11-19T18:04:12.569Z,101452.81
2022-11-19T18:06:40.595Z,101456.00
2022-11-19T18:09:08.564Z,101454.25
2022-11-19T18:11:40.189Z,101450.28
2022-11-19T18:14:10.056Z,101454.56
2022-11-19T18:16:41.752Z,101451.00
2022-11-19T18:19:13.525Z,101440.63
2022-11-19T18:21:43.641Z,101444.69
2022-11-19T18:24:12.539Z,101446.34
2022-11-19T18:26:40.109Z,101454.03
2022-11-19T18:29:07.550Z,101448.59
2022-11-19T18:31:39.256Z,101448.44
2022-11-19T18:34:06.911Z,101442.34
2022-11-19T18:36:34.647Z,101445.53
2022-11-19T18:39:02.170Z,101445.47
2022-11-19T18:41:30.280Z,101444.44
2022-11-19T18:44:15.441Z,101442.50
2022-11-19T18:46:42.943Z,101443.31
2022-11-19T18:49:11.745Z,101438.84
2022-11-19T18:51:39.604Z,101449.09
2022-11-19T18:54:07.096Z,101445.53
2022-11-19T18:56:34.818Z,101458.19
2022-11-19T18:59:04.916Z,101450.47
2022-11-19T19:01:33.129Z,101457.25
2022-11-19T19:04:00.739Z,101450.31
2022-11-19T19:06:30.046Z,101444.97
2022-11-19T19:08:57.565Z,101449.44
2022-11-19T19:11:42.363Z,101444.88
2022-11-19T19:14:09.843Z,101445.03
2022-11-19T19:16:37.299Z,101444.97
2022-11-19T19:19:05.119Z,101451.72
2022-11-19T19:21:32.986Z,101449.97
2022-11-19T19:24:01.256Z,101453.16
2022-11-19T19:26:29.534Z,101453.94
2022-11-19T19:28:57.708Z,101444.91
2022-11-19T19:31:26.092Z,101459.81
2022-11-19T19:33:55.514Z,101466.53
2022-11-19T19:36:24.898Z,101469.00
2022-11-19T19:38:53.076Z,101468.28
2022-11-19T19:41:28.823Z,101464.59
2022-11-19T19:43:58.743Z,101458.63
2022-11-19T19:46:28.766Z,101457.75
2022-11-19T19:48:58.374Z,101457.75
2022-11-19T19:51:29.510Z,101449.31
2022-11-19T19:53:57.994Z,101460.53
2022-11-19T19:56:29.345Z,101439.09
2022-11-19T19:59:01.858Z,101450.25
2022-11-19T20:01:33.261Z,101444.22
2022-11-19T20:04:11.997Z,101439.09
2022-11-19T20:06:44.980Z,101447.47
2022-11-19T20:09:12.957Z,101448.97
2022-11-19T20:11:40.923Z,101438.75
2022-11-19T20:14:08.894Z,101446.31
2022-11-19T20:16:42.905Z,101463.22
2022-11-19T20:19:15.304Z,101462.50
2022-11-19T20:22:02.026Z,101467.44
2022-11-19T20:24:32.839Z,101466.56
2022-11-19T20:27:02.331Z,101470.97
2022-11-19T20:29:31.529Z,101474.47
2022-11-19T20:31:59.528Z,101471.69
2022-11-19T20:34:27.470Z,101473.97
2022-11-19T20:36:57.590Z,101467.09
2022-11-19T20:39:26.506Z,101479.78
2022-11-19T20:42:14.520Z,101485.59
2022-11-19T20:44:43.318Z,101483.47
2022-11-19T20:47:11.197Z,101479.19
2022-11-19T20:49:40.076Z,101479.78
2022-11-19T20:52:13.876Z,101458.72
2022-11-19T20:54:42.972Z,101487.34
2022-11-19T20:57:15.899Z,101467.50
2022-11-19T20:59:43.840Z,101474.34
2022-11-19T21:02:14.522Z,101484.53
2022-11-19T21:04:45.308Z,101485.94
2022-11-19T21:07:13.551Z,101483.22
2022-11-19T21:09:42.374Z,101482.41
2022-11-19T21:12:10.338Z,101490.88
2022-11-19T21:14:38.410Z,101472.06
2022-11-19T21:17:06.282Z,101471.00
2022-11-19T21:19:34.150Z,101466.44
2022-11-19T21:22:02.024Z,101466.78
2022-11-19T21:24:30.510Z,101471.88
2022-11-19T21:26:58.670Z,101467.66
2022-11-19T21:29:26.641Z,101469.44
2022-11-19T21:31:55.631Z,101473.13
2022-11-19T21:34:23.272Z,101462.75
2022-11-19T21:36:50.935Z,101458.44
2022-11-19T21:39:20.088Z,101463.53
2022-11-19T21:41:48.047Z,101454.63
2022-11-19T21:44:21.122Z,101461.69
2022-11-19T21:46:49.260Z,101471.00
2022-11-19T21:49:16.966Z,101465.63
2022-11-19T21:51:45.552Z,101475.38
2022-11-19T21:54:36.000Z,101467.66
2022-11-19T21:57:13.931Z,101475.19
2022-11-19T22:00:46.298Z,101470.81
2022-11-19T22:06:46.628Z,101472.38
2022-11-19T22:09:19.296Z,101458.50
2022-11-19T22:11:56.439Z,101464.81
2022-11-19T22:14:24.049Z,101462.38
2022-11-19T22:16:54.454Z,101458.16
2022-11-19T22:19:22.580Z,101460.34
2022-11-19T22:21:50.478Z,101461.31
2022-11-19T22:24:18.112Z,101462.88
2022-11-19T22:26:45.624Z,101462.88
2022-11-19T22:29:13.162Z,101454.91
2022-11-19T22:31:40.705Z,101454.19
2022-11-19T22:34:08.233Z,101453.31
2022-11-19T22:36:35.746Z,101453.13
2022-11-19T22:39:03.275Z,101452.06
2022-11-19T22:41:31.126Z,101466.84
2022-11-19T22:43:59.374Z,101451.38
2022-11-19T22:46:26.944Z,101454.34
2022-11-19T22:48:58.914Z,101470.59
2022-11-19T22:51:26.812Z,101474.56
2022-11-19T22:53:55.358Z,101468.28
2022-11-19T22:56:28.306Z,101462.66
2022-11-19T22:58:56.671Z,101464.41
2022-11-19T23:01:27.559Z,101464.41
2022-11-19T23:03:56.217Z,101471.09
2022-11-19T23:06:24.800Z,101471.19
2022-11-19T23:08:53.098Z,101462.56
2022-11-19T23:11:43.248Z,101455.44
2022-11-19T23:14:12.701Z,101448.59
2022-11-19T23:16:40.551Z,101445.00
2022-11-19T23:19:08.983Z,101442.44
2022-11-19T23:21:36.832Z,101441.38
2022-11-19T23:24:05.041Z,101434.72
2022-11-19T23:26:34.190Z,101438.13
2022-11-19T23:29:01.858Z,101434.72
2022-11-19T23:31:32.651Z,101441.38
2022-11-19T23:34:00.463Z,101434.34
2022-11-19T23:36:33.225Z,101433.53
2022-11-19T23:39:01.003Z,101427.31
2022-11-19T23:41:28.970Z,101419.88
2022-11-19T23:43:57.405Z,101426.56
2022-11-19T23:46:30.771Z,101429.00
2022-11-19T23:48:59.785Z,101426.16
2022-11-19T23:51:33.256Z,101419.44
2022-11-19T23:54:02.408Z,101419.53
2022-11-19T23:56:32.157Z,101416.88
2022-11-19T23:59:01.895Z,101411.69
